Time;durP1;ratioP1;P1;durP2;ratioP2;P2;SDS_P1;SDS_P2;PMS_P1;PMS_P2;Temp;Humidity;BMP_temperature;BMP_pressure;BME280_temperature;BME280_humidity;BME280_pressure;Samples;Min_cycle;Max_cycle;Signal;HPM_P1;HPM_P2
2021/10/18 00:00:57;;;;;;;3.15;2.45;;;23.80;82.20;;;;;;5034725;28;20413;-72
2021/10/18 00:03:24;;;;;;;3.17;2.78;;;23.60;80.00;;;;;;5034971;28;20037;-71
2021/10/18 00:05:52;;;;;;;2.50;2.30;;;23.50;81.60;;;;;;5034597;28;20132;-71
2021/10/18 00:08:19;;;;;;;3.75;2.45;;;23.40;80.20;;;;;;5034852;28;20033;-71
2021/10/18 00:10:47;;;;;;;2.75;2.30;;;23.60;82.10;;;;;;5033128;28;20026;-71
2021/10/18 00:13:14;;;;;;;2.72;2.53;;;23.70;80.30;;;;;;5034748;28;20104;-71
2021/10/18 00:15:42;;;;;;;3.72;2.42;;;23.90;79.80;;;;;;5034769;28;20025;-71
2021/10/18 00:18:09;;;;;;;4.63;2.88;;;24.00;83.20;;;;;;5017099;28;20446;-71
2021/10/18 00:20:37;;;;;;;4.15;3.28;;;24.20;79.90;;;;;;5034473;28;20026;-70
2021/10/18 00:23:04;;;;;;;3.08;2.50;;;24.20;78.70;;;;;;5034558;28;20022;-71
2021/10/18 00:25:32;;;;;;;2.53;2.42;;;24.40;78.30;;;;;;5034777;28;20354;-71
2021/10/18 00:27:59;;;;;;;2.50;2.40;;;24.40;77.60;;;;;;5033137;28;20025;-71
2021/10/18 00:30:26;;;;;;;2.75;2.35;;;24.60;77.60;;;;;;5034338;28;20018;-71
2021/10/18 00:32:54;;;;;;;4.07;2.60;;;24.80;77.30;;;;;;5034605;28;20021;-71
2021/10/18 00:35:21;;;;;;;2.80;2.60;;;24.80;76.50;;;;;;5034444;28;20025;-71
2021/10/18 00:37:48;;;;;;;2.40;2.30;;;25.00;73.30;;;;;;5016711;28;20028;-71
2021/10/18 00:40:17;;;;;;;2.75;2.55;;;24.80;75.50;;;;;;5034346;28;20057;-71
2021/10/18 00:42:44;;;;;;;3.20;2.50;;;24.70;74.20;;;;;;5034393;28;20060;-72
2021/10/18 00:45:12;;;;;;;2.67;2.35;;;24.80;73.00;;;;;;5034323;28;20052;-72
2021/10/18 00:47:39;;;;;;;2.58;2.38;;;25.00;74.20;;;;;;5016407;28;20552;-72
2021/10/18 00:50:07;;;;;;;2.78;2.33;;;25.10;71.80;;;;;;5034246;28;20078;-72
2021/10/18 00:52:36;;;;;;;2.40;2.20;;;25.10;70.10;;;;;;5034093;28;20021;-72
2021/10/18 00:55:04;;;;;;;3.75;2.15;;;25.20;72.60;;;;;;5034059;28;20025;-71
2021/10/18 00:57:31;;;;;;;2.20;2.00;;;25.30;71.30;;;;;;5033982;28;20032;-71
2021/10/18 01:00:00;;;;;;;2.05;1.95;;;25.40;71.40;;;;;;5016246;28;20072;-71
2021/10/18 01:02:28;;;;;;;7.63;2.55;;;25.50;70.40;;;;;;5016168;28;20032;-71
2021/10/18 01:04:56;;;;;;;2.40;2.25;;;25.30;70.40;;;;;;5015889;28;20045;-71
2021/10/18 01:07:23;;;;;;;2.50;2.30;;;25.60;72.50;;;;;;5033789;28;20022;-71
2021/10/18 01:09:51;;;;;;;2.00;1.80;;;26.00;72.40;;;;;;5033779;28;20056;-71
2021/10/18 01:12:19;;;;;;;3.80;2.65;;;26.00;67.10;;;;;;5033726;28;20101;-71
2021/10/18 01:14:46;;;;;;;4.65;3.15;;;26.10;75.40;;;;;;5033608;28;20034;-71
2021/10/18 01:17:14;;;;;;;4.40;2.80;;;26.20;80.00;;;;;;5033556;28;20029;-71
2021/10/18 01:19:41;;;;;;;2.83;2.42;;;26.10;80.30;;;;;;5033795;28;20025;-72
2021/10/18 01:22:08;;;;;;;2.85;2.50;;;26.20;81.50;;;;;;5032971;28;20029;-72
2021/10/18 01:24:36;;;;;;;3.58;2.25;;;26.10;80.30;;;;;;5033645;28;20026;-72
2021/10/18 01:27:05;;;;;;;3.47;2.65;;;26.40;82.50;;;;;;5033462;28;20025;-71
2021/10/18 01:29:34;;;;;;;5.82;2.90;;;26.20;80.40;;;;;;5015649;28;20022;-71
2021/10/18 01:32:03;;;;;;;8.90;3.90;;;26.10;82.30;;;;;;5015569;28;20029;-71
2021/10/18 01:34:34;;;;;;;8.52;2.90;;;26.40;83.70;;;;;;5033271;28;20032;-71
2021/10/18 01:37:03;;;;;;;7.78;3.22;;;26.20;84.00;;;;;;5033207;28;20017;-71
2021/10/18 01:39:32;;;;;;;5.35;2.88;;;25.90;85.90;;;;;;5015447;28;20505;-72
2021/10/18 01:41:59;;;;;;;6.30;2.97;;;25.90;86.50;;;;;;5033030;28;20104;-72
2021/10/18 01:44:27;;;;;;;6.10;3.15;;;25.90;85.30;;;;;;5032898;28;20017;-72
2021/10/18 01:46:54;;;;;;;3.40;2.72;;;26.00;85.80;;;;;;5033057;28;20500;-72
2021/10/18 01:49:21;;;;;;;3.72;2.75;;;25.90;86.10;;;;;;5015275;28;20025;-72
2021/10/18 01:51:49;;;;;;;5.93;2.70;;;25.80;87.40;;;;;;5031644;28;20148;-72
2021/10/18 01:54:16;;;;;;;4.88;2.72;;;25.70;85.70;;;;;;5033143;28;20017;-71
2021/10/18 01:56:43;;;;;;;3.53;2.60;;;25.90;87.50;;;;;;5033071;28;20026;-71
2021/10/18 01:59:11;;;;;;;5.72;2.85;;;25.80;86.00;;;;;;5015224;28;20025;-72
2021/10/18 02:01:38;;;;;;;7.38;3.25;;;25.90;87.90;;;;;;5033148;28;20026;-71
2021/10/18 02:04:05;;;;;;;8.90;3.58;;;26.10;85.50;;;;;;5015189;28;20120;-72
2021/10/18 02:06:33;;;;;;;4.28;2.78;;;26.10;85.90;;;;;;5015096;28;20409;-72
2021/10/18 02:09:00;;;;;;;4.10;2.88;;;26.40;86.50;;;;;;5032935;28;20018;-72
2021/10/18 02:11:27;;;;;;;4.75;3.03;;;26.50;85.30;;;;;;5015067;28;20442;-73
2021/10/18 02:13:55;;;;;;;4.40;2.80;;;26.10;87.10;;;;;;5032724;28;20027;-73
2021/10/18 02:16:23;;;;;;;4.20;3.00;;;26.30;85.50;;;;;;5031527;28;20028;-72
2021/10/18 02:18:50;;;;;;;3.05;2.50;;;26.50;85.80;;;;;;5032604;28;20121;-73
2021/10/18 02:21:18;;;;;;;4.55;2.60;;;26.60;83.30;;;;;;5014864;28;20021;-72
2021/10/18 02:23:45;;;;;;;6.00;3.08;;;26.40;84.70;;;;;;5031374;28;20033;-72
2021/10/18 02:26:12;;;;;;;4.88;2.60;;;26.20;85.90;;;;;;5014669;28;20032;-72
2021/10/18 02:28:40;;;;;;;4.25;3.15;;;26.20;85.20;;;;;;5032601;28;20482;-72
2021/10/18 02:31:07;;;;;;;3.92;3.00;;;26.40;85.00;;;;;;5014929;28;20021;-73
2021/10/18 02:33:34;;;;;;;4.03;2.70;;;26.50;82.70;;;;;;5035597;28;20045;-73
2021/10/18 02:36:01;;;;;;;4.05;2.70;;;26.50;83.80;;;;;;5036639;28;20096;-73
2021/10/18 02:38:29;;;;;;;3.90;2.95;;;26.50;82.20;;;;;;5036699;28;20682;-73
2021/10/18 02:40:56;;;;;;;5.60;2.70;;;26.40;84.40;;;;;;5036504;28;20021;-73
2021/10/18 02:43:24;;;;;;;3.38;2.40;;;26.50;83.50;;;;;;5036656;28;20104;-73
2021/10/18 02:45:51;;;;;;;4.35;3.15;;;26.40;82.50;;;;;;5036509;28;20037;-73
2021/10/18 02:48:18;;;;;;;3.38;3.08;;;26.60;82.40;;;;;;5018731;28;20067;-73
2021/10/18 02:50:46;;;;;;;4.68;3.03;;;26.60;82.50;;;;;;5036574;28;20483;-72
2021/10/18 02:53:13;;;;;;;4.45;2.28;;;26.80;83.30;;;;;;5036234;28;20022;-73
2021/10/18 02:55:40;;;;;;;4.32;2.47;;;26.50;82.70;;;;;;5036212;28;20025;-73
2021/10/18 02:58:08;;;;;;;3.28;2.75;;;26.70;83.00;;;;;;5018723;28;20056;-72
2021/10/18 03:00:35;;;;;;;4.03;2.63;;;26.60;81.50;;;;;;5018296;28;20099;-72
2021/10/18 03:03:02;;;;;;;4.80;2.25;;;26.90;80.50;;;;;;5036340;28;20022;-72
2021/10/18 03:05:30;;;;;;;4.57;2.45;;;27.00;80.00;;;;;;5035906;28;20051;-72
2021/10/18 03:07:57;;;;;;;3.38;2.50;;;27.10;80.50;;;;;;5018027;28;20018;-72
2021/10/18 03:10:25;;;;;;;4.85;2.38;;;27.20;78.70;;;;;;5034390;28;20022;-72
2021/10/18 03:12:52;;;;;;;3.25;2.25;;;27.30;79.00;;;;;;5036011;28;20502;-71
2021/10/18 03:15:19;;;;;;;2.75;2.20;;;27.40;79.40;;;;;;5017978;28;20025;-71
2021/10/18 03:17:47;;;;;;;3.20;2.78;;;27.50;78.70;;;;;;5034523;28;20025;-70
2021/10/18 03:20:14;;;;;;;4.40;2.40;;;27.00;79.50;;;;;;5035767;28;20383;-71
2021/10/18 03:22:41;;;;;;;6.40;2.50;;;27.00;80.00;;;;;;5035827;28;20026;-70
2021/10/18 03:25:10;;;;;;;4.47;2.30;;;26.90;81.10;;;;;;5035621;28;20239;-70
2021/10/18 03:27:38;;;;;;;3.03;2.30;;;26.90;80.40;;;;;;5035706;28;20025;-70
2021/10/18 03:30:06;;;;;;;2.42;2.10;;;26.70;79.40;;;;;;5035679;28;20017;-71
2021/10/18 03:32:33;;;;;;;2.88;2.33;;;26.60;79.30;;;;;;5035620;28;20057;-71
2021/10/18 03:35:01;;;;;;;3.97;2.47;;;26.40;78.00;;;;;;5035548;28;20482;-71
2021/10/18 03:37:28;;;;;;;4.47;2.42;;;26.40;77.00;;;;;;5035508;28;20494;-71
2021/10/18 03:39:55;;;;;;;3.47;2.20;;;26.60;76.50;;;;;;5017759;28;20060;-71
2021/10/18 03:42:23;;;;;;;4.18;2.10;;;26.80;77.00;;;;;;5035442;28;20027;-71
2021/10/18 03:44:51;;;;;;;3.33;2.03;;;26.90;75.00;;;;;;5034697;28;20028;-71
2021/10/18 03:47:19;;;;;;;2.83;2.08;;;26.40;75.20;;;;;;5035481;28;20489;-71
2021/10/18 03:49:46;;;;;;;4.70;2.08;;;26.60;74.40;;;;;;5017557;28;20556;-71
2021/10/18 03:52:14;;;;;;;2.72;2.13;;;26.50;74.30;;;;;;5035272;28;20554;-71
2021/10/18 03:54:42;;;;;;;3.13;2.00;;;26.20;74.00;;;;;;5035222;28;20029;-71
2021/10/18 03:57:09;;;;;;;2.88;2.00;;;26.30;75.40;;;;;;5017394;28;20057;-71
2021/10/18 03:59:36;;;;;;;6.13;2.50;;;26.50;76.70;;;;;;5017348;28;20482;-71
2021/10/18 04:02:06;;;;;;;2.70;2.08;;;26.60;77.40;;;;;;5035029;28;20032;-72
2021/10/18 04:04:33;;;;;;;3.53;2.08;;;26.60;78.90;;;;;;5033498;28;20037;-71
2021/10/18 04:07:01;;;;;;;3.22;2.40;;;26.50;78.80;;;;;;5035216;28;20021;-71
2021/10/18 04:09:28;;;;;;;2.58;2.17;;;26.50;79.70;;;;;;5035041;28;20045;-72
2021/10/18 04:11:55;;;;;;;2.60;2.40;;;26.50;79.60;;;;;;5034968;28;20029;-71
2021/10/18 04:14:26;;;;;;;2.17;1.98;;;26.20;81.80;;;;;;5034929;28;20033;-71
2021/10/18 04:16:53;;;;;;;3.30;2.42;;;26.30;82.30;;;;;;5034794;28;20026;-71
2021/10/18 04:19:21;;;;;;;4.57;2.22;;;25.90;82.20;;;;;;5016898;28;20080;-71
2021/10/18 04:21:48;;;;;;;4.03;2.58;;;25.80;85.60;;;;;;5035007;28;20382;-70
2021/10/18 04:24:15;;;;;;;3.78;2.97;;;25.70;87.30;;;;;;5034646;28;20020;-70
2021/10/18 04:26:42;;;;;;;3.47;2.80;;;25.80;87.80;;;;;;5034784;28;20029;-70
2021/10/18 04:29:10;;;;;;;4.03;2.90;;;25.80;87.30;;;;;;5034508;28;20025;-71
2021/10/18 04:31:37;;;;;;;3.25;2.97;;;25.50;88.60;;;;;;5034526;28;20021;-71
2021/10/18 04:34:04;;;;;;;4.25;3.05;;;25.10;89.70;;;;;;5034569;28;20104;-71
2021/10/18 04:36:32;;;;;;;3.15;2.95;;;25.10;88.80;;;;;;5034438;28;20021;-71
2021/10/18 04:38:59;;;;;;;5.60;2.88;;;25.20;87.80;;;;;;5033162;28;20057;-71
2021/10/18 04:41:27;;;;;;;2.90;2.60;;;25.10;89.10;;;;;;5034310;28;20079;-71
2021/10/18 04:43:54;;;;;;;5.05;3.40;;;24.90;90.20;;;;;;5034339;28;20018;-71
2021/10/18 04:46:21;;;;;;;4.25;3.20;;;24.90;89.70;;;;;;5034706;28;20048;-71
2021/10/18 04:48:48;;;;;;;3.83;3.10;;;24.80;90.50;;;;;;5034220;28;20022;-71
2021/10/18 04:51:16;;;;;;;3.58;3.08;;;24.90;90.60;;;;;;5034229;28;20052;-71
2021/10/18 04:53:43;;;;;;;4.93;3.13;;;25.20;90.60;;;;;;5016391;28;20398;-71
2021/10/18 04:56:10;;;;;;;8.57;3.60;;;25.40;90.60;;;;;;5033351;28;20057;-71
2021/10/18 04:58:38;;;;;;;5.32;3.10;;;25.10;90.50;;;;;;5034189;28;20108;-71
2021/10/18 05:01:05;;;;;;;3.58;3.20;;;24.70;91.60;;;;;;5033942;28;20084;-71
2021/10/18 05:03:32;;;;;;;4.38;3.00;;;24.80;91.40;;;;;;5033898;28;20047;-72
2021/10/18 05:06:00;;;;;;;3.22;2.78;;;25.20;91.20;;;;;;5033825;28;20099;-72
2021/10/18 05:08:27;;;;;;;3.63;2.60;;;25.10;89.60;;;;;;5032566;28;20018;-72
2021/10/18 05:10:56;;;;;;;4.45;2.70;;;24.90;88.60;;;;;;5033844;28;20109;-72
2021/10/18 05:13:23;;;;;;;3.95;2.60;;;24.90;89.10;;;;;;5033959;28;20036;-71
2021/10/18 05:15:52;;;;;;;4.93;2.85;;;24.80;88.90;;;;;;5033671;28;20071;-71
2021/10/18 05:18:27;;;;;;;3.13;2.70;;;24.70;89.20;;;;;;5090479;27;20427;-72
2021/10/18 05:20:55;;;;;;;3.28;2.88;;;24.60;89.20;;;;;;5090526;28;20028;-72
2021/10/18 05:23:22;;;;;;;3.20;2.90;;;24.40;90.30;;;;;;5090364;28;20024;-72
2021/10/18 05:25:49;;;;;;;3.67;3.30;;;24.60;90.60;;;;;;5090274;28;20016;-71
2021/10/18 05:28:17;;;;;;;4.80;3.10;;;24.60;90.50;;;;;;5089027;28;20043;-72
2021/10/18 05:30:44;;;;;;;5.10;3.50;;;24.70;90.90;;;;;;5090186;28;20141;-71
2021/10/18 05:33:11;;;;;;;7.43;3.35;;;25.00;90.80;;;;;;5088847;28;20059;-71
2021/10/18 05:35:38;;;;;;;4.88;2.88;;;24.80;90.60;;;;;;5090095;28;20504;-70
2021/10/18 05:38:06;;;;;;;5.82;3.00;;;24.80;90.40;;;;;;5089917;28;20023;-71
2021/10/18 05:40:33;;;;;;;6.05;2.88;;;24.80;90.50;;;;;;5090018;28;20020;-71
2021/10/18 05:43:01;;;;;;;4.65;2.30;;;24.70;89.30;;;;;;5089994;28;20020;-71
2021/10/18 05:45:28;;;;;;;3.42;2.50;;;24.60;88.80;;;;;;5089867;28;20141;-72
2021/10/18 05:48:01;;;;;;;4.32;2.47;;;24.60;88.70;;;;;;5089887;28;20028;-71
2021/10/18 05:50:34;;;;;;;2.85;2.22;;;24.50;89.40;;;;;;5089855;28;20396;-72
2021/10/18 05:53:01;;;;;;;4.07;2.75;;;24.40;89.60;;;;;;5088541;28;20021;-71
2021/10/18 05:55:29;;;;;;;5.10;2.63;;;24.40;90.00;;;;;;5089718;28;20039;-71
2021/10/18 05:58:04;;;;;;;2.97;2.33;;;24.60;88.10;;;;;;5089760;28;20025;-71
2021/10/18 06:00:40;;;;;;;3.40;2.22;;;24.60;85.40;;;;;;5089645;28;20048;-72
2021/10/18 06:03:08;;;;;;;4.13;2.25;;;24.50;86.30;;;;;;5088360;28;20035;-72
2021/10/18 06:05:46;;;;;;;3.72;2.30;;;24.50;86.90;;;;;;5089447;28;20082;-72
2021/10/18 06:08:15;;;;;;;6.38;2.70;;;24.60;86.80;;;;;;5088138;28;20021;-72
2021/10/18 06:10:45;;;;;;;3.15;2.42;;;24.60;85.80;;;;;;5088081;28;20392;-71
2021/10/18 06:13:13;;;;;;;1.88;1.77;;;24.60;85.70;;;;;;5089355;28;20104;-71
2021/10/18 06:15:41;;;;;;;3.53;2.60;;;24.40;84.50;;;;;;5087791;28;20036;-71
2021/10/18 06:18:11;;;;;;;4.32;2.70;;;24.30;84.10;;;;;;5089079;28;20075;-72
2021/10/18 06:20:44;;;;;;;4.30;2.40;;;24.20;84.40;;;;;;5089450;28;20020;-71
2021/10/18 06:23:13;;;;;;;3.72;2.40;;;24.20;85.00;;;;;;5089050;28;20043;-70
2021/10/18 06:25:41;;;;;;;2.78;2.40;;;24.20;85.30;;;;;;5087794;28;20078;-72
2021/10/18 06:28:09;;;;;;;4.00;2.50;;;24.20;84.10;;;;;;5085000;28;20484;-71
2021/10/18 06:30:37;;;;;;;2.70;2.50;;;24.40;85.90;;;;;;5075484;28;20020;-72
2021/10/18 06:33:04;;;;;;;3.75;2.25;;;24.40;85.40;;;;;;5073998;28;20036;-71
2021/10/18 06:35:35;;;;;;;3.25;2.40;;;24.40;85.90;;;;;;5075503;28;20078;-72
2021/10/18 06:38:19;;;;;;;3.65;2.75;;;24.50;85.30;;;;;;5075466;28;20021;-71
2021/10/18 06:40:48;;;;;;;3.30;2.60;;;24.70;86.00;;;;;;5075354;28;20111;-71
2021/10/18 06:43:15;;;;;;;3.20;2.90;;;24.90;86.00;;;;;;5075246;28;20038;-70
2021/10/18 06:45:43;;;;;;;3.65;2.35;;;24.80;85.70;;;;;;5075276;28;20033;-71
2021/10/18 06:48:14;;;;;;;2.83;2.42;;;24.70;86.80;;;;;;5075212;28;20068;-70
2021/10/18 06:50:43;;;;;;;2.63;2.35;;;24.60;88.00;;;;;;5075338;28;20454;-71
2021/10/18 06:53:30;;;;;;;3.00;2.40;;;24.70;88.60;;;;;;5075165;28;20033;-70
2021/10/18 06:56:03;;;;;;;7.53;2.70;;;24.50;87.60;;;;;;5075153;28;20261;-70
2021/10/18 06:58:31;;;;;;;2.75;2.42;;;24.20;89.00;;;;;;5075029;28;20032;-70
2021/10/18 07:00:58;;;;;;;3.83;2.70;;;24.00;90.10;;;;;;5073680;28;20467;-69
2021/10/18 07:03:26;;;;;;;3.63;3.25;;;23.70;90.50;;;;;;5074800;28;20020;-69
2021/10/18 07:05:53;;;;;;;2.97;2.70;;;23.50;91.40;;;;;;5073559;28;20389;-71
2021/10/18 07:08:21;;;;;;;3.05;2.83;;;23.10;92.10;;;;;;5074715;28;20017;-71
2021/10/18 07:10:48;;;;;;;3.85;2.75;;;22.80;92.40;;;;;;5074673;28;20469;-71
2021/10/18 07:13:15;;;;;;;3.92;2.58;;;22.40;93.00;;;;;;5073372;28;20028;-71
2021/10/18 07:15:43;;;;;;;4.00;2.95;;;22.20;93.40;;;;;;5074521;28;20079;-71
2021/10/18 07:18:10;;;;;;;3.00;2.70;;;22.00;94.20;;;;;;5074342;28;20119;-72
2021/10/18 07:20:38;;;;;;;4.10;2.80;;;22.00;94.90;;;;;;5073180;28;20043;-71
2021/10/18 07:23:12;;;;;;;2.85;2.65;;;21.80;95.40;;;;;;5074505;28;20048;-71
2021/10/18 07:25:44;;;;;;;3.88;2.88;;;21.70;95.40;;;;;;5074418;28;20074;-70
2021/10/18 07:28:11;;;;;;;3.22;2.92;;;21.70;95.90;;;;;;5074442;28;20028;-72
2021/10/18 07:30:40;;;;;;;3.58;2.70;;;21.60;96.30;;;;;;5074318;28;20056;-72
2021/10/18 07:33:07;;;;;;;4.05;3.20;;;21.60;96.60;;;;;;5074345;28;20089;-72
2021/10/18 07:35:36;;;;;;;3.17;2.80;;;21.50;97.10;;;;;;5074942;28;20486;-72
2021/10/18 07:38:05;;;;;;;4.05;3.30;;;21.30;96.40;;;;;;5073098;28;20033;-71
2021/10/18 07:40:33;;;;;;;4.53;3.08;;;21.20;96.60;;;;;;5073075;28;20021;-71
2021/10/18 07:43:03;;;;;;;5.53;4.00;;;21.00;96.50;;;;;;5073942;28;20013;-71
2021/10/18 07:45:31;;;;;;;3.80;3.15;;;20.80;96.80;;;;;;5074062;28;20017;-71
2021/10/18 07:47:59;;;;;;;4.85;3.50;;;20.80;97.40;;;;;;5073864;28;20107;-71
2021/10/18 07:50:26;;;;;;;3.28;3.08;;;20.60;97.70;;;;;;5073851;28;20021;-72
2021/10/18 07:52:53;;;;;;;4.30;3.10;;;20.50;97.70;;;;;;5073809;28;20031;-71
2021/10/18 07:55:21;;;;;;;3.80;3.15;;;20.50;97.80;;;;;;5073833;28;20024;-71
2021/10/18 07:57:50;;;;;;;3.72;3.30;;;20.30;98.00;;;;;;5072392;28;20439;-71
2021/10/18 08:00:18;;;;;;;3.38;2.92;;;20.30;98.30;;;;;;5073658;28;20023;-70
2021/10/18 08:02:46;;;;;;;3.30;3.00;;;20.20;98.60;;;;;;5073780;28;20026;-68
2021/10/18 08:05:16;;;;;;;5.55;3.03;;;20.10;98.50;;;;;;5072216;28;20028;-69
2021/10/18 08:07:51;;;;;;;5.65;3.30;;;20.00;98.70;;;;;;5073669;28;20024;-70
2021/10/18 08:10:26;;;;;;;3.78;3.08;;;20.00;98.70;;;;;;5072293;28;20024;-70
2021/10/18 08:13:00;;;;;;;3.95;3.00;;;19.90;99.00;;;;;;5072605;28;20025;-70
2021/10/18 08:15:35;;;;;;;3.10;2.70;;;19.80;99.20;;;;;;5072316;28;20568;-70
2021/10/18 08:18:02;;;;;;;3.58;2.50;;;19.70;99.60;;;;;;5071794;28;20048;-70
2021/10/18 08:20:30;;;;;;;3.92;3.03;;;19.70;99.80;;;;;;5073393;28;20028;-71
2021/10/18 08:22:57;;;;;;;4.00;2.90;;;19.70;99.90;;;;;;5073459;28;20104;-71
2021/10/18 08:25:25;;;;;;;2.70;2.50;;;19.50;99.90;;;;;;5073331;28;20017;-69
2021/10/18 08:27:52;;;;;;;4.68;2.80;;;19.50;99.90;;;;;;5073324;28;20028;-70
2021/10/18 08:30:20;;;;;;;3.63;2.88;;;19.40;99.90;;;;;;5073152;28;20052;-72
2021/10/18 08:32:47;;;;;;;4.68;2.80;;;19.40;99.90;;;;;;5071922;28;20056;-70
2021/10/18 08:35:15;;;;;;;3.33;3.10;;;19.30;99.90;;;;;;5073174;28;20031;-71
2021/10/18 08:40:31;;;;;;;3.60;3.30;;;19.20;99.90;;;;;;5073464;28;20055;-72
2021/10/18 08:43:01;;;;;;;;;;;19.10;99.90;;;;;;5073685;28;20088;-71
2021/10/18 08:45:29;;;;;;;3.80;3.50;;;19.10;99.90;;;;;;5073473;28;19919;-73
2021/10/18 08:47:57;;;;;;;4.03;3.63;;;19.10;99.90;;;;;;5073313;28;20396;-73
2021/10/18 08:50:25;;;;;;;4.13;3.35;;;19.10;99.90;;;;;;5073435;28;20024;-73
2021/10/18 08:52:53;;;;;;;3.80;3.50;;;19.10;99.90;;;;;;5073104;28;20090;-74
2021/10/18 08:55:20;;;;;;;5.78;3.35;;;19.10;99.90;;;;;;5071808;28;20077;-72
2021/10/18 08:57:48;;;;;;;4.00;3.10;;;19.10;99.90;;;;;;5073016;28;20086;-74
2021/10/18 09:00:39;;;;;;;4.15;3.13;;;19.10;99.90;;;;;;5073029;28;20452;-73
2021/10/18 09:03:22;;;;;;;6.05;3.30;;;19.10;99.90;;;;;;5068322;28;20112;-73
2021/10/18 09:06:09;;;;;;;6.40;3.53;;;19.10;99.90;;;;;;5073004;28;20028;-73
2021/10/18 09:08:43;;;;;;;4.72;3.30;;;19.10;99.90;;;;;;5072884;28;20099;-74
2021/10/18 09:11:20;;;;;;;3.05;2.85;;;19.10;99.90;;;;;;5072826;28;20378;-72
2021/10/18 09:13:58;;;;;;;3.95;3.65;;;19.10;99.90;;;;;;5072939;28;20017;-72
2021/10/18 09:16:35;;;;;;;4.25;3.20;;;19.10;99.90;;;;;;5072607;28;20040;-73
2021/10/18 09:19:21;;;;;;;4.25;3.33;;;19.00;99.90;;;;;;5071532;28;20381;-72
2021/10/18 09:21:56;;;;;;;3.50;3.20;;;18.90;99.90;;;;;;5071600;28;20063;-74
2021/10/18 09:24:32;;;;;;;9.05;4.07;;;18.90;99.90;;;;;;5071700;28;20035;-73
2021/10/18 09:27:09;;;;;;;5.80;3.90;;;18.90;99.90;;;;;;5071356;28;20419;-72
2021/10/18 09:29:48;;;;;;;3.92;3.63;;;18.90;99.90;;;;;;5071518;28;20028;-73
2021/10/18 09:32:19;;;;;;;4.15;3.75;;;18.90;99.90;;;;;;5071274;28;20036;-73
2021/10/18 09:34:48;;;;;;;4.72;4.00;;;18.90;99.90;;;;;;5071319;28;20389;-74
2021/10/18 09:37:16;;;;;;;4.40;4.10;;;18.80;99.90;;;;;;5072539;28;20024;-73
2021/10/18 09:39:48;;;;;;;4.95;4.30;;;18.80;99.90;;;;;;5071238;28;20520;-74
2021/10/18 09:42:18;;;;;;;4.78;4.38;;;18.80;99.90;;;;;;5072537;28;20081;-72
2021/10/18 09:45:19;;;;;;;4.72;4.25;;;18.70;99.90;;;;;;5071190;28;20025;-74
2021/10/18 10:53:42;;;;;;;5.78;5.38;;;18.30;99.90;;;;;;5075593;28;20032;-73
2021/10/18 10:56:24;;;;;;;;;;;18.30;99.90;;;;;;5074423;28;20040;-73
2021/10/18 10:59:28;;;;;;;5.57;5.18;;;18.40;99.90;;;;;;5073917;28;19904;-73
2021/10/18 11:02:09;;;;;;;5.00;4.70;;;18.50;99.90;;;;;;5073876;28;20024;-72
2021/10/18 11:04:36;;;;;;;5.25;4.75;;;18.60;99.90;;;;;;5073870;28;20154;-73
2021/10/18 11:07:10;;;;;;;4.40;4.00;;;18.70;99.90;;;;;;5073865;28;20397;-73
2021/10/18 11:09:46;;;;;;;5.53;4.38;;;18.70;99.90;;;;;;5073822;28;20031;-73
2021/10/18 11:12:38;;;;;;;4.70;4.30;;;18.70;99.90;;;;;;5075184;28;20358;-73
2021/10/18 11:15:11;;;;;;;4.65;4.35;;;18.80;99.90;;;;;;5073528;28;20024;-73
2021/10/18 11:17:51;;;;;;;4.90;4.47;;;18.80;99.90;;;;;;5073346;28;20394;-73
2021/10/18 11:20:24;;;;;;;4.70;4.30;;;18.70;99.90;;;;;;5074956;28;20384;-74
2021/10/18 11:22:53;;;;;;;4.93;4.30;;;18.60;99.90;;;;;;5074786;28;20036;-73
2021/10/18 11:25:23;;;;;;;5.45;4.72;;;18.60;99.90;;;;;;5073416;28;20135;-74
2021/10/18 11:28:09;;;;;;;5.20;4.80;;;18.50;99.90;;;;;;5074670;28;20020;-73
2021/10/18 11:30:39;;;;;;;5.60;5.30;;;18.40;99.90;;;;;;5073332;28;20025;-74
2021/10/18 11:33:13;;;;;;;6.03;5.63;;;18.30;99.90;;;;;;5074629;28;20112;-74
2021/10/18 11:35:41;;;;;;;6.40;5.80;;;18.20;99.90;;;;;;5073241;28;20052;-73
2021/10/18 11:38:14;;;;;;;6.20;5.60;;;18.10;99.90;;;;;;5073176;28;20028;-74
2021/10/18 11:40:44;;;;;;;6.35;5.85;;;18.00;99.90;;;;;;5073366;28;20031;-74
2021/10/18 11:43:13;;;;;;;6.38;5.88;;;18.00;99.90;;;;;;5074399;28;20013;-74
2021/10/18 11:45:50;;;;;;;6.20;5.70;;;18.00;99.90;;;;;;5072940;28;20024;-74
2021/10/18 11:48:20;;;;;;;6.13;5.53;;;18.00;99.90;;;;;;5057113;28;20440;-73
2021/10/18 11:50:48;;;;;;;;;;;18.00;99.90;;;;;;5074699;28;20029;-74
2021/10/18 11:53:20;;;;;;;5.78;5.30;;;18.20;99.90;;;;;;5072866;28;19958;-75
2021/10/18 11:56:03;;;;;;;5.60;5.20;;;18.10;99.90;;;;;;5072849;28;20048;-73
2021/10/18 11:58:37;;;;;;;5.55;5.15;;;18.10;99.90;;;;;;5072579;28;20093;-73
2021/10/18 12:01:14;;;;;;;5.93;5.32;;;17.90;99.90;;;;;;5074045;28;20025;-74
2021/10/18 12:03:41;;;;;;;6.00;5.50;;;17.90;99.90;;;;;;5072643;28;20028;-74
2021/10/18 12:06:10;;;;;;;4.85;4.55;;;17.90;99.90;;;;;;5072631;28;20031;-74
2021/10/18 12:08:40;;;;;;;5.85;5.35;;;17.90;99.90;;;;;;5072744;28;20024;-74
2021/10/18 12:11:09;;;;;;;5.97;5.47;;;17.80;99.90;;;;;;5073937;28;20512;-74
2021/10/18 12:13:39;;;;;;;5.50;5.10;;;17.70;99.90;;;;;;5072498;28;20066;-74
2021/10/18 12:16:10;;;;;;;5.60;5.20;;;17.70;99.90;;;;;;5073570;28;20100;-75
2021/10/18 12:18:45;;;;;;;6.53;6.03;;;17.70;99.90;;;;;;5072403;28;20503;-74
2021/10/18 12:21:22;;;;;;;6.45;6.05;;;17.70;99.90;;;;;;5073704;28;20474;-74
2021/10/18 12:23:53;;;;;;;6.20;5.70;;;17.70;99.90;;;;;;5073687;28;20025;-74
2021/10/18 12:26:33;;;;;;;6.40;6.00;;;17.70;99.90;;;;;;5071774;28;20029;-74
2021/10/18 12:29:12;;;;;;;6.82;6.28;;;17.70;99.90;;;;;;5073792;28;20020;-74
2021/10/18 12:32:03;;;;;;;6.07;5.78;;;17.60;99.90;;;;;;5073707;28;20511;-74
2021/10/18 12:34:30;;;;;;;;;;;17.60;99.90;;;;;;5073960;28;20027;-74
2021/10/18 12:37:08;;;;;;;6.90;6.30;;;17.50;99.90;;;;;;5073454;28;20287;-74
2021/10/18 12:39:35;;;;;;;6.20;5.80;;;17.40;99.90;;;;;;5073401;28;20444;-74
2021/10/18 12:42:09;;;;;;;5.95;5.47;;;17.30;99.90;;;;;;5073340;28;20013;-74
2021/10/18 12:44:44;;;;;;;6.07;5.47;;;17.30;99.90;;;;;;5073422;28;20538;-74
2021/10/18 12:47:20;;;;;;;6.43;5.82;;;17.20;99.90;;;;;;5073322;28;20024;-74
2021/10/18 12:49:53;;;;;;;6.10;5.60;;;17.20;99.90;;;;;;5072072;28;20481;-74
2021/10/18 12:52:32;;;;;;;6.10;5.60;;;17.00;99.90;;;;;;5056181;28;20028;-74
2021/10/18 12:55:09;;;;;;;5.90;5.50;;;16.90;99.90;;;;;;5073576;28;20021;-74
2021/10/18 12:57:46;;;;;;;6.30;5.70;;;16.80;99.90;;;;;;5073202;28;20461;-74
2021/10/18 13:00:16;;;;;;;6.07;5.70;;;16.80;99.90;;;;;;5072140;28;20039;-73
2021/10/18 13:02:46;;;;;;;6.82;6.32;;;16.80;99.90;;;;;;5073346;28;20017;-74
2021/10/18 13:05:16;;;;;;;7.70;6.65;;;16.80;99.90;;;;;;5071750;28;20070;-74
2021/10/18 13:07:55;;;;;;;6.77;6.37;;;16.70;99.90;;;;;;5073203;28;20107;-74
2021/10/18 13:10:24;;;;;;;6.70;6.20;;;16.60;99.90;;;;;;5071889;28;20352;-74
2021/10/18 13:12:52;;;;;;;6.45;6.05;;;16.50;99.90;;;;;;5071851;28;20055;-74
2021/10/18 13:15:20;;;;;;;6.50;5.90;;;16.50;99.90;;;;;;5071698;28;20028;-75
2021/10/18 13:17:48;;;;;;;7.03;6.60;;;16.50;99.90;;;;;;5072801;28;20516;-74
2021/10/18 13:20:18;;;;;;;6.30;5.90;;;16.40;99.90;;;;;;5071697;28;20021;-74
2021/10/18 13:22:48;;;;;;;7.40;6.90;;;16.40;99.90;;;;;;5072988;28;20013;-74
2021/10/18 13:25:16;;;;;;;7.00;6.60;;;16.40;99.90;;;;;;5073027;28;20024;-75
2021/10/18 13:27:43;;;;;;;7.50;7.00;;;16.40;99.90;;;;;;5071680;28;20024;-75
2021/10/18 13:30:12;;;;;;;7.47;6.97;;;16.40;99.90;;;;;;5071663;28;20118;-75
2021/10/18 13:32:41;;;;;;;7.32;6.72;;;16.40;99.90;;;;;;5072939;28;20032;-75
2021/10/18 13:35:09;;;;;;;7.05;6.55;;;16.30;99.90;;;;;;5071581;28;20566;-75
2021/10/18 13:37:37;;;;;;;6.82;6.35;;;16.30;99.90;;;;;;5071424;28;20025;-75
2021/10/18 13:40:07;;;;;;;7.30;6.80;;;16.20;99.90;;;;;;5075181;28;20020;-75
2021/10/18 13:42:34;;;;;;;7.70;7.20;;;16.20;99.90;;;;;;5075688;28;20028;-75
2021/10/18 13:45:02;;;;;;;7.65;7.20;;;16.30;99.90;;;;;;5076883;28;20025;-75
2021/10/18 13:47:29;;;;;;;9.02;8.30;;;16.20;99.90;;;;;;5076652;28;20138;-75
2021/10/18 13:49:57;;;;;;;8.40;7.78;;;16.20;99.90;;;;;;5076728;28;20033;-75
2021/10/18 13:52:25;;;;;;;7.82;7.43;;;16.10;99.90;;;;;;5075752;28;20065;-74
2021/10/18 13:54:53;;;;;;;8.32;7.80;;;16.10;99.90;;;;;;5076650;28;20028;-74
2021/10/18 13:57:22;;;;;;;7.70;7.30;;;16.10;99.90;;;;;;5075155;28;20032;-75
2021/10/18 13:59:49;;;;;;;7.95;7.35;;;16.20;99.90;;;;;;5076418;28;20025;-75
2021/10/18 14:02:17;;;;;;;7.25;6.85;;;16.20;99.90;;;;;;5076442;28;20387;-75
2021/10/18 14:04:45;;;;;;;8.07;7.43;;;16.20;99.90;;;;;;5076474;28;20024;-75
2021/10/18 14:07:13;;;;;;;7.75;7.15;;;16.20;99.90;;;;;;5076310;28;20036;-75
2021/10/18 14:09:41;;;;;;;7.60;7.20;;;16.30;99.90;;;;;;5076290;28;20550;-75